Time;durP1;ratioP1;P1;durP2;ratioP2;P2;SDS_P1;SDS_P2;PMS_P1;PMS_P2;Temp;Humidity;BMP_temperature;BMP_pressure;BME280_temperature;BME280_humidity;BME280_pressure;Samples;Min_cycle;Max_cycle;Signal;HPM_P1;HPM_P2
2022/05/02 00:01:02;;;;;;;4.07;2.60;;;13.40;97.60;;;;;;5067703;28;20290;-68
2022/05/02 00:03:35;;;;;;;4.17;2.60;;;13.40;97.70;;;;;;5067560;28;20253;-68
2022/05/02 00:06:02;;;;;;;2.90;2.70;;;13.30;97.80;;;;;;5067522;28;20195;-68
2022/05/02 00:08:30;;;;;;;3.07;2.73;;;13.40;97.90;;;;;;5067363;28;20207;-68
2022/05/02 00:10:57;;;;;;;2.77;2.57;;;13.40;98.00;;;;;;5067606;28;20211;-68
2022/05/02 00:13:31;;;;;;;4.63;2.60;;;13.30;98.00;;;;;;5067397;28;20701;-68
2022/05/02 00:15:58;;;;;;;3.60;2.80;;;13.40;98.10;;;;;;5067090;28;20248;-68
2022/05/02 00:18:35;;;;;;;3.20;2.90;;;13.30;98.10;;;;;;5047138;28;20521;-68
2022/05/02 00:21:02;;;;;;;4.40;2.97;;;13.30;97.90;;;;;;5047447;28;20192;-68
2022/05/02 00:23:29;;;;;;;3.40;3.10;;;13.30;98.20;;;;;;5057491;28;20253;-68
2022/05/02 00:25:56;;;;;;;3.10;2.53;;;13.40;98.00;;;;;;5067141;28;20261;-68
2022/05/02 00:28:48;;;;;;;4.20;2.90;;;13.40;98.00;;;;;;5067350;28;20249;-68
2022/05/02 00:31:14;;;;;;;3.07;2.70;;;13.30;97.90;;;;;;5066872;28;20207;-68
2022/05/02 00:33:42;;;;;;;3.90;2.97;;;13.30;97.90;;;;;;5067076;28;20324;-68
2022/05/02 00:36:09;;;;;;;3.23;2.93;;;13.30;97.90;;;;;;5054428;28;20212;-68
2022/05/02 00:38:35;;;;;;;3.83;2.70;;;13.30;98.10;;;;;;5046811;28;20293;-68
2022/05/02 00:41:04;;;;;;;4.17;2.90;;;13.30;98.10;;;;;;5047305;28;20274;-68
2022/05/02 00:43:41;;;;;;;3.33;2.83;;;13.30;98.10;;;;;;5067067;28;20211;-68
2022/05/02 00:46:17;;;;;;;3.00;2.80;;;13.30;98.20;;;;;;5071031;28;20211;-68
2022/05/02 00:48:45;;;;;;;5.03;2.97;;;13.20;97.90;;;;;;5071188;28;20282;-68
2022/05/02 00:51:12;;;;;;;3.67;2.93;;;13.20;97.90;;;;;;5070694;28;20211;-68
2022/05/02 00:53:40;;;;;;;5.47;3.00;;;13.20;98.00;;;;;;5070462;28;20231;-68
2022/05/02 00:56:07;;;;;;;3.07;2.70;;;13.10;98.00;;;;;;5071006;28;20214;-68
2022/05/02 00:58:35;;;;;;;3.80;3.27;;;13.10;98.10;;;;;;5070848;28;20276;-68
2022/05/02 01:01:03;;;;;;;3.00;2.70;;;13.10;98.20;;;;;;5063885;28;20559;-68
2022/05/02 01:03:30;;;;;;;4.63;3.17;;;13.10;98.20;;;;;;5050397;28;20200;-68
2022/05/02 01:08:43;;;;;;;3.60;3.13;;;13.10;98.20;;;;;;5050250;28;20697;-68
2022/05/02 01:11:10;;;;;;;4.73;3.20;;;13.10;98.50;;;;;;5050334;28;20204;-68
2022/05/02 01:13:38;;;;;;;3.70;3.40;;;13.00;98.30;;;;;;5063861;28;20239;-68
2022/05/02 01:16:10;;;;;;;3.33;3.03;;;13.00;98.20;;;;;;5050497;28;20570;-68
2022/05/02 01:18:38;;;;;;;3.73;2.87;;;13.00;98.20;;;;;;5050385;28;20297;-68
2022/05/02 01:21:09;;;;;;;3.43;3.00;;;12.90;98.10;;;;;;5052149;28;20204;-68
2022/05/02 01:23:36;;;;;;;3.97;3.00;;;12.90;98.20;;;;;;5081441;28;20705;-68
2022/05/02 01:26:03;;;;;;;4.33;3.00;;;12.90;98.30;;;;;;5090833;28;20691;-68
2022/05/02 01:28:29;;;;;;;3.97;2.87;;;12.80;98.30;;;;;;5089830;28;20628;-68
2022/05/02 01:30:57;;;;;;;4.07;2.53;;;12.90;98.40;;;;;;5088903;28;20226;-68
2022/05/02 01:33:46;;;;;;;3.90;2.90;;;12.80;98.40;;;;;;5069541;28;20235;-68
2022/05/02 01:36:14;;;;;;;3.27;2.90;;;12.80;98.40;;;;;;5070183;28;20545;-68
2022/05/02 01:38:53;;;;;;;4.60;2.80;;;12.80;98.50;;;;;;5063955;28;20642;-68
2022/05/02 01:41:20;;;;;;;3.67;2.97;;;12.80;98.50;;;;;;5030033;28;20207;-68
2022/05/02 01:43:50;;;;;;;3.00;2.80;;;12.80;98.50;;;;;;5029921;28;20620;-68
2022/05/02 01:46:16;;;;;;;3.93;2.60;;;12.80;98.60;;;;;;5029927;28;20259;-68
2022/05/02 01:48:43;;;;;;;3.03;2.70;;;12.70;98.60;;;;;;5029937;28;20267;-68
2022/05/02 01:51:09;;;;;;;3.50;3.20;;;12.70;98.60;;;;;;5029861;28;20205;-68
2022/05/02 01:53:37;;;;;;;3.20;2.63;;;12.60;98.60;;;;;;5029720;28;20283;-68
2022/05/02 01:56:05;;;;;;;3.30;2.77;;;12.60;98.60;;;;;;5029213;28;20254;-68
2022/05/02 01:58:46;;;;;;;3.90;2.60;;;12.60;98.80;;;;;;5029766;28;20262;-68
2022/05/02 02:07:15;;;;;;;5.20;2.73;;;12.60;98.80;;;;;;4997364;28;20479;-68
2022/05/02 02:09:43;;;;;;;2.77;2.57;;;12.50;98.90;;;;;;5023311;28;20205;-68
2022/05/02 02:12:11;;;;;;;2.70;2.50;;;12.50;99.10;;;;;;5029594;28;20266;-68
2022/05/02 02:14:37;;;;;;;3.17;2.40;;;12.50;99.20;;;;;;5029464;28;20229;-69
2022/05/02 02:17:05;;;;;;;2.60;2.40;;;12.50;99.20;;;;;;5029363;28;20208;-68
2022/05/02 02:19:31;;;;;;;4.47;2.50;;;12.40;99.10;;;;;;5029494;28;20205;-68
2022/05/02 02:22:16;;;;;;;3.87;2.80;;;12.40;99.00;;;;;;5019913;28;20216;-68
2022/05/02 02:24:45;;;;;;;4.33;2.70;;;12.40;99.10;;;;;;5009396;28;20197;-68
2022/05/02 02:27:11;;;;;;;3.03;2.73;;;12.30;99.10;;;;;;5010296;28;20201;-68
2022/05/02 02:29:38;;;;;;;2.70;2.50;;;12.30;99.20;;;;;;5029077;28;20208;-68
2022/05/02 02:32:06;;;;;;;3.20;2.43;;;12.30;99.40;;;;;;5028990;28;20204;-68
2022/05/02 02:34:32;;;;;;;3.30;2.73;;;12.20;99.50;;;;;;5028798;28;20228;-68
2022/05/02 02:37:00;;;;;;;3.93;2.60;;;12.20;99.70;;;;;;5029097;28;20204;-68
2022/05/02 02:39:26;;;;;;;3.30;2.77;;;12.20;99.80;;;;;;5037788;28;20640;-68
2022/05/02 02:41:54;;;;;;;2.87;2.67;;;12.20;99.90;;;;;;5061957;28;20258;-68
2022/05/02 02:44:21;;;;;;;5.03;3.07;;;12.10;99.90;;;;;;5048465;28;20262;-68
2022/05/02 02:46:47;;;;;;;3.40;3.10;;;12.20;99.90;;;;;;5048508;28;20609;-68
2022/05/02 02:49:14;;;;;;;4.17;2.93;;;12.10;99.90;;;;;;5048419;28;20196;-68
2022/05/02 02:51:41;;;;;;;3.47;2.77;;;12.10;99.90;;;;;;5048420;28;20215;-68
2022/05/02 02:54:07;;;;;;;2.87;2.67;;;12.00;99.90;;;;;;5048239;28;20247;-68
2022/05/02 02:56:34;;;;;;;2.67;2.47;;;12.00;99.90;;;;;;5048367;28;20628;-68
2022/05/02 02:59:02;;;;;;;2.90;2.60;;;11.90;99.90;;;;;;5048324;28;20720;-68
2022/05/02 03:01:29;;;;;;;2.83;2.63;;;11.90;99.90;;;;;;5048071;28;20606;-68
2022/05/02 03:03:56;;;;;;;2.97;2.77;;;11.80;99.90;;;;;;5048543;28;20215;-68
2022/05/02 03:06:22;;;;;;;5.87;3.13;;;11.80;99.90;;;;;;5065482;28;20211;-68
2022/05/02 03:08:49;;;;;;;3.20;2.90;;;11.80;99.90;;;;;;5067485;28;20215;-68
2022/05/02 03:11:16;;;;;;;2.97;2.70;;;11.70;99.90;;;;;;5068452;28;20207;-68
2022/05/02 03:13:43;;;;;;;3.33;2.73;;;11.70;99.90;;;;;;5068268;28;20235;-68
2022/05/02 03:16:11;;;;;;;3.30;2.80;;;11.70;99.90;;;;;;5068225;28;20282;-68
2022/05/02 03:18:38;;;;;;;3.80;2.83;;;11.70;99.90;;;;;;5068071;28;20208;-68
2022/05/02 03:21:07;;;;;;;3.13;2.90;;;11.70;99.90;;;;;;5066455;28;20211;-68
2022/05/02 03:23:34;;;;;;;3.17;2.87;;;11.80;99.90;;;;;;5057156;28;20207;-68
2022/05/02 03:26:00;;;;;;;2.90;2.70;;;11.70;99.90;;;;;;5048103;28;20200;-68
2022/05/02 03:28:27;;;;;;;5.57;3.10;;;11.70;99.90;;;;;;5047872;28;20208;-68
2022/05/02 03:30:54;;;;;;;3.40;3.10;;;11.80;99.90;;;;;;5047666;28;20622;-68
2022/05/02 03:33:22;;;;;;;4.43;2.97;;;11.80;99.90;;;;;;5047585;28;20240;-68
2022/05/02 03:35:48;;;;;;;4.87;3.40;;;11.80;99.90;;;;;;5047715;28;20204;-68
2022/05/02 03:38:15;;;;;;;4.43;3.10;;;11.80;99.90;;;;;;5047600;28;20286;-68
2022/05/02 03:40:42;;;;;;;4.17;3.27;;;11.70;99.90;;;;;;5047497;28;20240;-68
2022/05/02 03:43:08;;;;;;;4.20;3.10;;;11.70;99.90;;;;;;5064152;28;20623;-68
2022/05/02 03:45:36;;;;;;;3.67;3.33;;;11.60;99.90;;;;;;5067654;28;20611;-68
2022/05/02 03:48:02;;;;;;;3.80;3.37;;;11.60;99.90;;;;;;5067811;28;20200;-68
2022/05/02 03:50:30;;;;;;;3.73;3.43;;;11.50;99.90;;;;;;5067681;28;20256;-68
2022/05/02 03:52:57;;;;;;;4.03;3.23;;;11.50;99.90;;;;;;5067574;28;20733;-68
2022/05/02 03:55:24;;;;;;;4.70;3.50;;;11.40;99.90;;;;;;5067494;28;20231;-68
2022/05/02 03:57:51;;;;;;;4.00;3.57;;;11.40;99.90;;;;;;5067373;28;20204;-68
2022/05/02 04:00:18;;;;;;;7.17;3.53;;;11.40;99.90;;;;;;5067257;28;20207;-68
2022/05/02 04:02:45;;;;;;;6.50;3.80;;;11.40;99.90;;;;;;5062655;28;20241;-68
2022/05/02 04:05:12;;;;;;;5.27;3.50;;;11.40;99.90;;;;;;5067621;28;20211;-68
2022/05/02 04:07:40;;;;;;;3.37;3.07;;;11.30;99.90;;;;;;5067105;28;20216;-68
2022/05/02 04:10:07;;;;;;;5.00;3.57;;;11.30;99.90;;;;;;5067460;28;20253;-68
2022/05/02 04:12:37;;;;;;;3.83;2.87;;;11.30;99.90;;;;;;5066977;28;20222;-69
2022/05/02 04:15:05;;;;;;;3.73;3.40;;;11.20;99.90;;;;;;5067507;28;20296;-68
2022/05/02 04:17:32;;;;;;;5.37;3.37;;;11.20;99.90;;;;;;5067445;28;20207;-68
2022/05/02 04:19:58;;;;;;;3.90;3.50;;;11.20;99.90;;;;;;5067019;28;20219;-68
2022/05/02 04:22:25;;;;;;;4.30;3.90;;;11.20;99.90;;;;;;5053190;28;20230;-68
2022/05/02 04:24:53;;;;;;;4.13;3.73;;;11.20;99.90;;;;;;5070929;28;20662;-68
2022/05/02 04:27:20;;;;;;;6.03;3.63;;;11.10;99.90;;;;;;5071214;28;20203;-68
2022/05/02 04:29:46;;;;;;;5.13;3.40;;;11.10;99.90;;;;;;5071620;28;20203;-68
2022/05/02 04:32:13;;;;;;;3.63;3.33;;;11.10;99.90;;;;;;5071304;28;20269;-68
2022/05/02 04:34:40;;;;;;;5.17;4.20;;;11.10;99.90;;;;;;5071323;28;20223;-68
2022/05/02 04:37:07;;;;;;;69.87;8.73;;;11.20;99.90;;;;;;5071331;28;20211;-68
2022/05/02 04:39:34;;;;;;;49.60;6.37;;;11.20;99.90;;;;;;5070857;28;20335;-68
2022/05/02 04:42:02;;;;;;;47.03;6.90;;;11.20;99.90;;;;;;5070602;28;20662;-68
2022/05/02 04:44:29;;;;;;;35.47;5.90;;;11.20;99.90;;;;;;5070806;28;20265;-68
2022/05/02 04:46:55;;;;;;;16.30;4.67;;;11.30;99.90;;;;;;5070710;28;20211;-68
2022/05/02 04:49:22;;;;;;;16.83;4.70;;;11.30;99.90;;;;;;5070622;28;20211;-68
2022/05/02 04:51:49;;;;;;;21.70;4.93;;;11.30;99.90;;;;;;5070517;28;20693;-68
2022/05/02 04:54:15;;;;;;;12.90;4.50;;;11.30;99.90;;;;;;5069967;28;21144;-68
2022/05/02 04:56:42;;;;;;;10.27;4.27;;;11.40;99.90;;;;;;5070332;28;20666;-68
2022/05/02 04:59:10;;;;;;;11.83;4.23;;;11.40;99.90;;;;;;5070173;28;20276;-68
2022/05/02 05:01:36;;;;;;;7.13;3.53;;;11.40;99.90;;;;;;5070385;28;20207;-68
2022/05/02 05:04:03;;;;;;;7.10;4.23;;;11.50;99.90;;;;;;5070260;28;20682;-68
2022/05/02 05:06:30;;;;;;;7.20;3.63;;;11.50;99.90;;;;;;5070349;28;20770;-68
2022/05/02 05:08:57;;;;;;;7.17;3.67;;;11.60;99.90;;;;;;5070350;28;20441;-68
2022/05/02 05:11:32;;;;;;;6.73;3.90;;;11.60;99.90;;;;;;5070640;28;20242;-68
2022/05/02 05:17:09;;;;;;;12.10;4.80;;;11.60;99.90;;;;;;5070085;28;20601;-68
2022/05/02 05:19:58;;;;;;;7.53;4.17;;;11.60;99.90;;;;;;5070289;28;20792;-68
2022/05/02 05:22:34;;;;;;;6.30;4.20;;;11.60;99.90;;;;;;5055250;28;20281;-68
2022/05/02 05:25:19;;;;;;;7.20;4.17;;;11.70;99.90;;;;;;5069768;28;20199;-68
2022/05/02 05:27:58;;;;;;;4.53;4.13;;;11.70;99.90;;;;;;5070190;28;20195;-68
2022/05/02 05:30:28;;;;;;;9.77;3.87;;;11.70;99.90;;;;;;5069053;28;20237;-68
2022/05/02 05:33:10;;;;;;;5.50;3.97;;;11.80;99.90;;;;;;5069815;28;20203;-68
2022/05/02 05:35:50;;;;;;;7.87;4.20;;;11.80;99.90;;;;;;5070156;28;20305;-68
2022/05/02 05:38:24;;;;;;;8.50;3.87;;;11.80;99.90;;;;;;5069723;28;20260;-68
2022/05/02 05:41:02;;;;;;;5.03;4.00;;;11.90;99.90;;;;;;5069728;28;20277;-68
2022/05/02 05:43:47;;;;;;;17.97;4.73;;;11.90;99.90;;;;;;5069482;28;20681;-68
2022/05/02 05:46:42;;;;;;;5.47;4.47;;;11.80;99.90;;;;;;5069860;28;20220;-68
2022/05/02 05:49:22;;;;;;;5.10;3.97;;;11.70;99.90;;;;;;5062861;28;20203;-68
2022/05/02 05:51:53;;;;;;;9.43;4.23;;;11.70;99.90;;;;;;5069581;28;20665;-68
2022/05/02 05:54:35;;;;;;;5.60;4.20;;;11.80;99.90;;;;;;5068574;28;20806;-68
2022/05/02 05:57:09;;;;;;;5.30;4.43;;;11.90;99.90;;;;;;5069777;28;20242;-68
2022/05/02 05:59:48;;;;;;;8.13;4.90;;;12.00;99.90;;;;;;5069694;28;20249;-68
2022/05/02 06:02:19;;;;;;;7.03;4.73;;;12.00;99.90;;;;;;5052839;28;20376;-68
2022/05/02 06:04:50;;;;;;;9.73;5.17;;;12.10;99.90;;;;;;5049792;28;20195;-68
2022/05/02 06:07:18;;;;;;;11.93;5.30;;;12.00;99.90;;;;;;5049476;28;20218;-68
2022/05/02 06:09:45;;;;;;;7.03;5.00;;;12.00;99.90;;;;;;5049099;28;20216;-68
2022/05/02 06:12:14;;;;;;;4.83;4.43;;;12.10;99.90;;;;;;5049642;28;20274;-68
2022/05/02 06:20:14;;;;;;;9.30;4.67;;;12.20;99.90;;;;;;5069192;28;20273;-68
2022/05/02 06:22:42;;;;;;;14.23;4.80;;;12.10;99.50;;;;;;5069159;28;20204;-68
2022/05/02 06:25:09;;;;;;;8.17;4.60;;;12.10;99.30;;;;;;5068992;28;20208;-68
2022/05/02 06:27:36;;;;;;;6.97;4.07;;;12.30;99.30;;;;;;5069030;28;20207;-67
2022/05/02 06:30:04;;;;;;;6.50;4.13;;;12.30;99.00;;;;;;5069129;28;20208;-68
2022/05/02 06:32:31;;;;;;;9.07;4.67;;;12.40;98.50;;;;;;5068141;28;20208;-68
2022/05/02 06:34:58;;;;;;;4.50;4.10;;;12.40;98.20;;;;;;5068342;28;20641;-68
2022/05/02 06:37:36;;;;;;;4.77;4.17;;;12.50;98.00;;;;;;5068777;28;20211;-68
2022/05/02 06:40:12;;;;;;;4.70;4.00;;;12.60;97.40;;;;;;5068465;28;20231;-68
2022/05/02 06:42:41;;;;;;;4.93;4.23;;;12.60;97.50;;;;;;5055115;28;20258;-68
2022/05/02 06:45:18;;;;;;;4.67;4.27;;;12.60;97.50;;;;;;5048614;28;20678;-68
2022/05/02 06:47:57;;;;;;;5.30;3.90;;;12.70;97.00;;;;;;5048564;28;20872;-69
2022/05/02 06:50:26;;;;;;;6.37;3.43;;;12.70;97.20;;;;;;5057889;28;20214;-68
2022/05/02 06:53:17;;;;;;;4.03;3.17;;;12.80;96.70;;;;;;5068532;28;20208;-68
2022/05/02 06:55:50;;;;;;;3.93;3.27;;;12.80;95.80;;;;;;5068706;28;20219;-68
2022/05/02 06:58:28;;;;;;;10.73;3.70;;;12.90;95.30;;;;;;5068233;28;20200;-67
2022/05/02 07:01:04;;;;;;;8.17;3.63;;;12.90;95.50;;;;;;5062847;28;20253;-68
2022/05/02 07:03:58;;;;;;;3.93;3.53;;;13.00;95.60;;;;;;5048153;28;20196;-68
2022/05/02 07:06:38;;;;;;;3.33;3.00;;;13.00;95.80;;;;;;5048036;28;20298;-67
2022/05/02 07:09:10;;;;;;;4.10;3.67;;;13.10;96.00;;;;;;5053487;28;20207;-68
2022/05/02 07:11:45;;;;;;;3.27;2.97;;;13.20;95.10;;;;;;5067837;28;20191;-69
2022/05/02 07:14:17;;;;;;;3.40;2.83;;;13.20;94.90;;;;;;5068224;28;20202;-68
2022/05/02 07:16:50;;;;;;;3.60;2.60;;;13.20;95.20;;;;;;5067980;28;20199;-68
2022/05/02 07:19:30;;;;;;;6.07;3.20;;;13.30;95.00;;;;;;5067813;28;20284;-68
2022/05/02 07:21:59;;;;;;;3.37;3.03;;;13.30;94.70;;;;;;5059089;28;20313;-68
2022/05/02 07:24:46;;;;;;;5.33;2.97;;;13.40;94.70;;;;;;5065644;28;20215;-68
2022/05/02 07:27:23;;;;;;;4.23;3.10;;;13.40;95.10;;;;;;5067895;28;20195;-68
2022/05/02 07:29:51;;;;;;;4.20;2.90;;;13.40;94.80;;;;;;5067825;28;20274;-67
2022/05/02 07:32:22;;;;;;;6.73;3.00;;;13.50;95.50;;;;;;5067716;28;20294;-67
2022/05/02 07:34:50;;;;;;;6.00;2.93;;;13.60;95.00;;;;;;5067819;28;20219;-68
2022/05/02 07:37:20;;;;;;;8.17;3.30;;;13.60;95.20;;;;;;5067727;28;20252;-67
2022/05/02 07:39:49;;;;;;;4.13;2.60;;;13.60;95.60;;;;;;5067230;28;20228;-68
2022/05/02 07:42:18;;;;;;;5.53;3.30;;;13.70;95.90;;;;;;5067377;28;20267;-68
2022/05/02 07:44:47;;;;;;;3.77;2.90;;;13.80;95.90;;;;;;5067674;28;20217;-68
2022/05/02 07:47:16;;;;;;;3.20;2.60;;;13.80;96.10;;;;;;5065827;28;20737;-68
2022/05/02 07:49:48;;;;;;;9.93;2.90;;;13.90;96.10;;;;;;5067704;28;20600;-67
2022/05/02 07:52:17;;;;;;;2.97;2.43;;;14.10;95.60;;;;;;5067445;28;20247;-67
2022/05/02 07:54:47;;;;;;;2.93;2.53;;;14.00;95.60;;;;;;5066782;28;20237;-67
2022/05/02 07:57:16;;;;;;;3.07;2.70;;;14.00;95.50;;;;;;5067571;28;20246;-67
2022/05/02 07:59:45;;;;;;;3.80;2.27;;;14.20;95.50;;;;;;5067567;28;20208;-67
2022/05/02 08:02:12;;;;;;;11.63;2.80;;;14.20;95.50;;;;;;5067164;28;20664;-67
2022/05/02 08:04:40;;;;;;;5.43;2.60;;;14.20;95.60;;;;;;5067082;28;20211;-67
2022/05/02 08:07:13;;;;;;;5.37;3.20;;;14.20;95.90;;;;;;5067713;28;20203;-67
2022/05/02 08:09:59;;;;;;;3.50;2.60;;;14.30;96.20;;;;;;5067203;28;20694;-67
2022/05/02 08:12:35;;;;;;;4.30;2.37;;;14.40;96.30;;;;;;5067024;28;20633;-67
2022/05/02 08:15:05;;;;;;;4.17;2.90;;;14.50;96.20;;;;;;5067268;28;20226;-67
2022/05/02 08:17:49;;;;;;;2.67;2.47;;;14.60;95.90;;;;;;5067132;28;20191;-67
2022/05/02 08:20:24;;;;;;;8.37;3.27;;;14.60;95.80;;;;;;5067241;28;20245;-67
2022/05/02 08:29:17;;;;;;;4.87;2.70;;;14.90;96.30;;;;;;5066813;28;20237;-67
2022/05/02 08:31:52;;;;;;;3.70;2.90;;;14.90;95.80;;;;;;5067095;28;20200;-67
2022/05/02 08:34:32;;;;;;;4.13;2.60;;;15.00;96.10;;;;;;5067152;28;20264;-67
2022/05/02 08:37:11;;;;;;;5.30;2.93;;;15.10;95.80;;;;;;5067067;28;20289;-67
2022/05/02 08:39:49;;;;;;;3.30;2.90;;;15.10;95.40;;;;;;5066087;28;20247;-67
2022/05/02 08:42:45;;;;;;;5.03;3.00;;;15.10;95.90;;;;;;5065850;28;20214;-67
2022/05/02 08:45:50;;;;;;;4.23;2.77;;;15.20;95.40;;;;;;5040319;28;20338;-67
2022/05/02 08:49:32;;;;;;;3.47;2.80;;;15.20;95.40;;;;;;5017342;28;20204;-67
2022/05/02 08:52:21;;;;;;;3.27;2.60;;;15.30;95.40;;;;;;5053065;28;20230;-67
2022/05/02 08:55:05;;;;;;;3.63;2.90;;;15.40;95.50;;;;;;5016208;28;20728;-67
2022/05/02 08:57:56;;;;;;;3.80;2.70;;;15.60;95.40;;;;;;5066612;28;20390;-67
2022/05/02 09:00:35;;;;;;;5.87;2.57;;;15.70;95.00;;;;;;5066755;28;20199;-67
2022/05/02 09:03:45;;;;;;;4.87;2.70;;;15.70;95.10;;;;;;5066975;28;20204;-67
2022/05/02 09:06:49;;;;;;;3.97;2.70;;;15.80;94.90;;;;;;5069409;28;20235;-67
2022/05/02 09:09:29;;;;;;;2.70;2.50;;;15.80;95.00;;;;;;5069645;28;20723;-67
2022/05/02 09:12:27;;;;;;;4.27;2.63;;;15.80;94.50;;;;;;5070360;28;20368;-67
2022/05/02 09:15:12;;;;;;;3.77;2.77;;;15.90;95.00;;;;;;5070288;28;20749;-67
2022/05/02 09:18:07;;;;;;;3.57;2.73;;;16.10;94.60;;;;;;5070163;28;20195;-67
2022/05/02 09:20:54;;;;;;;5.57;3.10;;;16.10;94.50;;;;;;5070021;28;20195;-67
2022/05/02 09:24:08;;;;;;;6.70;3.53;;;16.30;94.40;;;;;;5059288;28;20204;-67
2022/05/02 09:26:57;;;;;;;7.77;3.33;;;16.40;94.30;;;;;;5069847;28;20661;-67
2022/05/02 09:30:18;;;;;;;5.03;2.50;;;16.40;93.00;;;;;;5070256;28;20223;-68
2022/05/02 09:32:47;;;;;;;5.40;2.40;;;16.30;93.60;;;;;;5009531;28;20205;-67
2022/05/02 09:35:18;;;;;;;5.97;3.10;;;16.40;94.50;;;;;;5027318;28;20519;-67
2022/05/02 09:37:57;;;;;;;5.67;2.80;;;16.50;93.90;;;;;;5047991;28;20212;-67
2022/05/02 09:40:36;;;;;;;7.83;2.83;;;16.60;94.10;;;;;;5065647;28;20235;-67
2022/05/02 09:43:24;;;;;;;3.37;2.73;;;16.80;94.60;;;;;;5069948;28;20240;-67
2022/05/02 09:52:03;;;;;;;4.70;2.90;;;17.10;93.90;;;;;;5063238;28;20211;-67
2022/05/02 09:58:10;;;;;;;37.43;5.07;;;17.10;93.10;;;;;;5048963;28;20299;-67
2022/05/02 10:01:07;;;;;;;4.27;2.87;;;17.30;93.60;;;;;;5069251;28;20208;-67
2022/05/02 10:04:08;;;;;;;15.30;4.57;;;17.30;92.70;;;;;;5069259;28;20628;-67
2022/05/02 10:06:42;;;;;;;8.57;3.03;;;17.40;92.90;;;;;;5068812;28;20254;-67
2022/05/02 10:09:18;;;;;;;3.10;2.90;;;17.50;93.20;;;;;;5068842;28;20642;-67
2022/05/02 10:12:03;;;;;;;4.87;3.33;;;17.60;92.90;;;;;;5069286;28;20686;-67
2022/05/02 10:14:49;;;;;;;6.60;3.23;;;17.50;91.80;;;;;;5069095;28;20195;-67
2022/05/02 10:17:32;;;;;;;5.03;3.13;;;17.50;92.50;;;;;;5068478;28;20292;-67
2022/05/02 10:20:12;;;;;;;4.77;3.07;;;17.70;92.50;;;;;;5069269;28;20192;-67
2022/05/02 10:22:59;;;;;;;3.50;3.20;;;17.80;92.30;;;;;;5069268;28;20210;-67
2022/05/02 10:25:36;;;;;;;3.63;3.30;;;17.90;91.30;;;;;;5068721;28;20195;-68
2022/05/02 10:28:21;;;;;;;3.33;3.03;;;17.90;91.10;;;;;;5068911;28;20209;-67
2022/05/02 10:31:06;;;;;;;5.57;3.70;;;17.90;91.70;;;;;;5068884;28;20230;-67
2022/05/02 10:33:36;;;;;;;3.40;3.10;;;18.00;92.30;;;;;;5068595;28;20294;-67
2022/05/02 10:36:07;;;;;;;4.53;3.30;;;18.00;91.00;;;;;;5068349;28;20231;-67
2022/05/02 10:38:37;;;;;;;3.60;3.30;;;17.90;91.10;;;;;;5068486;28;20196;-67
2022/05/02 10:41:13;;;;;;;4.13;3.63;;;17.80;91.40;;;;;;5068246;28;20277;-67
2022/05/02 10:43:48;;;;;;;3.63;3.40;;;17.90;91.00;;;;;;5048727;28;20195;-68
2022/05/02 10:46:18;;;;;;;4.00;3.70;;;17.90;90.80;;;;;;5048501;28;20200;-67
2022/05/02 10:48:50;;;;;;;3.97;3.40;;;17.90;90.60;;;;;;5048508;28;20211;-67
2022/05/02 10:51:27;;;;;;;3.57;3.23;;;18.00;91.30;;;;;;5047999;28;20619;-67
2022/05/02 10:54:10;;;;;;;4.60;3.10;;;18.10;90.90;;;;;;5052154;28;20688;-68
2022/05/02 10:56:43;;;;;;;3.17;2.90;;;18.20;91.00;;;;;;5068153;28;20310;-67
2022/05/02 10:59:11;;;;;;;3.37;2.90;;;18.40;91.50;;;;;;5068483;28;20729;-68
2022/05/02 11:02:20;;;;;;;4.70;2.83;;;18.40;91.30;;;;;;5068159;28;20265;-68
2022/05/02 11:05:04;;;;;;;4.27;2.77;;;18.50;91.00;;;;;;5068130;28;20245;-68
2022/05/02 11:07:43;;;;;;;4.83;2.80;;;18.60;90.90;;;;;;5068327;28;20199;-68
2022/05/02 11:10:11;;;;;;;5.03;3.77;;;18.80;90.70;;;;;;5068208;28;20252;-68
2022/05/02 11:12:41;;;;;;;4.53;3.07;;;18.90;89.60;;;;;;5068090;28;20231;-68
2022/05/02 11:15:11;;;;;;;5.57;3.23;;;19.10;90.90;;;;;;5068253;28;20208;-67
2022/05/02 11:17:55;;;;;;;5.97;3.33;;;19.10;90.30;;;;;;5068077;28;20219;-68
2022/05/02 11:20:43;;;;;;;4.73;3.20;;;19.20;90.10;;;;;;5068173;28;20203;-67
2022/05/02 11:23:44;;;;;;;5.37;3.57;;;19.30;90.10;;;;;;5056790;28;20207;-68
2022/05/02 11:26:21;;;;;;;6.67;3.93;;;19.50;88.90;;;;;;5067640;28;20771;-68
2022/05/02 11:29:00;;;;;;;4.03;3.20;;;19.40;87.90;;;;;;5067077;28;20191;-68
2022/05/02 11:31:33;;;;;;;12.13;4.53;;;19.40;89.00;;;;;;5063611;28;20207;-68
2022/05/02 11:34:05;;;;;;;7.30;3.30;;;19.40;89.40;;;;;;5047909;28;20192;-68
2022/05/02 11:36:41;;;;;;;3.73;3.40;;;19.60;89.60;;;;;;5047596;28;20247;-68
2022/05/02 11:39:10;;;;;;;11.57;4.47;;;19.70;89.60;;;;;;5047278;28;20188;-68
2022/05/02 11:41:44;;;;;;;4.97;3.73;;;19.80;88.10;;;;;;5052071;28;20281;-68
2022/05/02 11:44:13;;;;;;;5.40;3.30;;;19.80;87.60;;;;;;5067682;28;20194;-69
2022/05/02 11:46:57;;;;;;;4.10;3.27;;;19.90;88.90;;;;;;5067633;28;20212;-69
2022/05/02 11:49:51;;;;;;;3.87;3.57;;;20.00;87.00;;;;;;5067738;28;20192;-68
2022/05/02 11:52:30;;;;;;;3.87;3.50;;;19.80;87.00;;;;;;5049255;28;20212;-68
2022/05/02 11:54:58;;;;;;;9.17;3.63;;;19.50;87.60;;;;;;5046887;28;20492;-68
2022/05/02 11:57:29;;;;;;;3.77;3.47;;;19.40;87.50;;;;;;5047224;28;20242;-68
2022/05/02 12:00:00;;;;;;;3.83;3.50;;;19.40;87.50;;;;;;5047575;28;20203;-68
2022/05/02 12:02:46;;;;;;;5.40;3.70;;;19.30;89.00;;;;;;5046970;28;20674;-68
2022/05/02 12:05:27;;;;;;;4.00;3.03;;;19.30;89.90;;;;;;5047727;28;20290;-68
2022/05/02 12:07:56;;;;;;;4.23;3.50;;;19.40;90.10;;;;;;5047554;28;20218;-68
2022/05/02 12:10:33;;;;;;;4.13;3.40;;;19.60;89.00;;;;;;5046968;28;20205;-68
2022/05/02 12:13:00;;;;;;;4.97;3.90;;;19.70;88.00;;;;;;5047162;28;20232;-68
2022/05/02 12:15:27;;;;;;;3.53;3.23;;;19.90;87.50;;;;;;5047338;28;20200;-68
2022/05/02 12:17:59;;;;;;;4.50;3.40;;;20.10;87.20;;;;;;5047236;28;20243;-68
2022/05/02 12:20:31;;;;;;;4.00;2.90;;;20.10;88.30;;;;;;5046858;28;20207;-69
2022/05/02 12:23:03;;;;;;;3.80;3.50;;;19.90;86.90;;;;;;5064223;28;20208;-68
2022/05/02 12:25:30;;;;;;;3.20;2.90;;;19.60;86.80;;;;;;5067009;28;20226;-68
2022/05/02 12:27:58;;;;;;;3.97;2.67;;;19.70;88.00;;;;;;5062631;28;20691;-68
2022/05/02 12:30:28;;;;;;;3.20;2.90;;;19.80;87.80;;;;;;5067266;28;20210;-67
2022/05/02 12:33:00;;;;;;;3.57;2.60;;;19.90;87.60;;;;;;5067158;28;20213;-68
2022/05/02 12:35:35;;;;;;;2.77;2.60;;;20.10;88.30;;;;;;5066793;28;20642;-68
2022/05/02 12:38:11;;;;;;;3.70;2.50;;;20.50;89.30;;;;;;5067200;28;20203;-68
2022/05/02 12:40:40;;;;;;;3.57;2.93;;;20.60;88.90;;;;;;5068496;28;20651;-68
2022/05/02 12:43:10;;;;;;;4.20;2.97;;;20.60;87.70;;;;;;5070397;28;20685;-68
2022/05/02 12:45:45;;;;;;;4.97;3.03;;;20.40;86.70;;;;;;5070707;28;20273;-68
2022/05/02 12:48:21;;;;;;;4.10;3.27;;;20.70;88.60;;;;;;5070549;28;20214;-68
2022/05/02 12:50:50;;;;;;;4.90;3.57;;;20.90;87.70;;;;;;5070946;28;20279;-68
2022/05/02 12:56:06;;;;;;;3.40;3.10;;;20.80;85.70;;;;;;5070594;28;20246;-68
2022/05/02 13:01:40;;;;;;;3.53;2.80;;;21.10;85.30;;;;;;5027360;28;20815;-68
2022/05/02 13:04:16;;;;;;;11.17;3.60;;;21.40;85.80;;;;;;5046806;28;20294;-68
2022/05/02 13:06:44;;;;;;;4.45;2.80;;;21.30;84.30;;;;;;5050674;28;20253;-69
2022/05/02 13:09:15;;;;;;;5.00;2.70;;;21.40;84.90;;;;;;5050089;28;20287;-68
2022/05/02 13:11:43;;;;;;;4.13;3.20;;;21.60;85.70;;;;;;5050064;28;20239;-68
2022/05/02 13:14:23;;;;;;;50.88;7.90;;;21.70;83.30;;;;;;5050422;28;20261;-68
2022/05/02 13:16:51;;;;;;;7.47;3.78;;;21.70;83.80;;;;;;5050392;28;20243;-69
2022/05/02 13:19:17;;;;;;;4.15;2.63;;;22.00;84.50;;;;;;5049931;28;20671;-68
2022/05/02 13:21:56;;;;;;;4.50;2.95;;;22.30;84.90;;;;;;5050220;28;20212;-68
2022/05/02 13:24:24;;;;;;;7.25;3.67;;;22.50;84.30;;;;;;5063613;28;20219;-69
2022/05/02 13:27:02;;;;;;;4.60;4.20;;;22.40;81.20;;;;;;5070266;28;20759;-69
2022/05/02 13:30:04;;;;;;;6.93;4.20;;;22.10;81.50;;;;;;5070116;28;20214;-68
2022/05/02 13:32:35;;;;;;;3.55;2.90;;;21.80;82.00;;;;;;4987993;28;20190;-68
2022/05/02 13:35:09;;;;;;;5.38;3.60;;;22.10;83.40;;;;;;4988194;28;20292;-69
2022/05/02 13:37:50;;;;;;;4.10;3.70;;;22.20;81.90;;;;;;5031102;28;20280;-69
2022/05/02 13:40:20;;;;;;;4.32;3.90;;;22.20;79.70;;;;;;5069416;28;20587;-68
2022/05/02 13:42:53;;;;;;;4.30;3.85;;;22.20;80.10;;;;;;5069675;28;20246;-68
2022/05/02 13:45:30;;;;;;;4.07;3.78;;;22.40;81.20;;;;;;5070321;28;20783;-69
2022/05/02 13:48:02;;;;;;;5.05;3.92;;;22.10;80.30;;;;;;5070002;28;20195;-68
2022/05/02 13:50:31;;;;;;;4.37;3.80;;;22.00;80.30;;;;;;5069801;28;20199;-69
2022/05/02 13:53:04;;;;;;;5.90;3.72;;;22.10;81.60;;;;;;5051567;28;20269;-68
2022/05/02 13:55:42;;;;;;;7.50;4.00;;;22.00;80.90;;;;;;5049594;28;20254;-69
2022/05/02 13:58:32;;;;;;;4.05;3.50;;;21.80;80.60;;;;;;5049671;28;20251;-68